Peoria Heights, Illinois
Current Conditions -  °F | °C
As of 1:54 PM on Friday 28 Nov 2014 (Local Time) from KPIA Reporting Station
Clear Clear  
Wind Chill: 29°   Ceiling: Unl
Heat Index: 38°   Visibility: 8mi
Dew Point: 29°   Wind: 17mph
Humidity: 70%   Direction: 180°S
Pressure: 29.97"   Gusts: NA
Location:  40.7452°N, 89.5738°W
Report Text: KPIA 281954Z 18015KT 8SM CLR 03/M02 A2997 RMK AO2 SLP157 T00331017
Loading
Personal Weather Stations






























Interactive Weather Map New forecast layout! Learn more

10-Day Weather Forecast

Advertisements
Track Severe Weather on mobile